createdAt,value
2022-08-04T00:02:27.272Z,28.75
2022-08-04T00:05:08.795Z,28.75
2022-08-04T00:07:45.385Z,28.80
2022-08-04T00:10:16.296Z,28.75
2022-08-04T00:12:48.363Z,28.83
2022-08-04T00:15:17.008Z,28.81
2022-08-04T00:17:54.249Z,28.72
2022-08-04T00:20:21.695Z,28.68
2022-08-04T00:22:52.025Z,28.66
2022-08-04T00:25:19.528Z,28.66
2022-08-04T00:27:46.995Z,28.68
2022-08-04T00:30:13.773Z,28.62
2022-08-04T00:32:41.147Z,28.66
2022-08-04T00:35:09.831Z,28.56
2022-08-04T00:37:38.080Z,28.65
2022-08-04T00:40:22.437Z,28.59
2022-08-04T00:43:08.121Z,28.53
2022-08-04T00:46:10.970Z,28.49
2022-08-04T00:48:42.603Z,28.48
2022-08-04T00:51:47.126Z,28.46
2022-08-04T00:54:16.879Z,28.46
2022-08-04T00:57:34.025Z,28.45
2022-08-04T01:00:14.528Z,28.25
2022-08-04T01:02:53.589Z,28.22
2022-08-04T01:05:46.611Z,28.22
2022-08-04T01:08:36.079Z,28.20
2022-08-04T01:11:56.805Z,28.13
2022-08-04T01:15:01.729Z,28.03
2022-08-04T01:17:40.305Z,28.13
2022-08-04T01:20:13.230Z,28.12
2022-08-04T01:23:04.108Z,28.12
2022-08-04T01:25:34.030Z,28.01
2022-08-04T01:28:29.922Z,27.94
2022-08-04T01:31:06.439Z,27.99
2022-08-04T01:34:02.961Z,28.02
2022-08-04T01:36:26.422Z,27.92
2022-08-04T01:38:54.380Z,27.82
2022-08-04T01:41:32.215Z,27.72
2022-08-04T01:44:02.749Z,27.56
2022-08-04T01:46:33.761Z,27.50
2022-08-04T01:49:02.808Z,27.46
2022-08-04T01:51:36.023Z,27.58
2022-08-04T01:54:02.790Z,27.40
2022-08-04T01:56:31.080Z,27.35
2022-08-04T01:58:58.002Z,27.41
2022-08-04T02:01:25.262Z,27.40
2022-08-04T02:04:21.987Z,27.42
2022-08-04T02:06:47.567Z,27.33
2022-08-04T02:09:20.325Z,27.32
2022-08-04T02:12:04.013Z,27.18
2022-08-04T02:14:55.885Z,27.16
2022-08-04T02:17:29.170Z,27.08
2022-08-04T02:20:05.486Z,27.10
2022-08-04T02:22:34.358Z,27.17
2022-08-04T02:25:10.002Z,27.31
2022-08-04T02:27:59.974Z,27.24
2022-08-04T02:31:05.794Z,27.06
2022-08-04T02:33:43.227Z,27.06
2022-08-04T02:36:16.580Z,27.05
2022-08-04T02:39:00.054Z,27.05
2022-08-04T02:41:29.380Z,27.05
2022-08-04T02:44:00.710Z,26.94
2022-08-04T02:46:28.826Z,27.01
2022-08-04T02:48:56.532Z,26.88
2022-08-04T02:51:29.373Z,27.04
2022-08-04T02:54:00.095Z,27.01
2022-08-04T02:56:30.976Z,26.77
2022-08-04T02:59:09.221Z,26.88
2022-08-04T03:01:36.240Z,26.75
2022-08-04T03:04:24.446Z,26.72
2022-08-04T03:07:20.020Z,26.75
2022-08-04T03:09:55.122Z,26.92
2022-08-04T03:12:32.140Z,26.94
2022-08-04T03:15:45.960Z,26.70
2022-08-04T03:18:21.923Z,26.79
2022-08-04T03:21:13.363Z,26.79
2022-08-04T03:24:02.199Z,26.79
2022-08-04T03:26:52.420Z,26.63
2022-08-04T03:29:47.403Z,26.45
2022-08-04T03:32:26.061Z,26.62
2022-08-04T03:35:47.052Z,26.68
2022-08-04T03:38:38.625Z,26.66
2022-08-04T03:41:59.874Z,26.44
2022-08-04T03:44:40.445Z,26.46
2022-08-04T03:47:54.907Z,26.55
2022-08-04T03:51:34.941Z,26.61
2022-08-04T03:54:18.935Z,26.52
2022-08-04T03:57:18.880Z,26.57
2022-08-04T04:00:05.001Z,26.57
2022-08-04T04:03:12.967Z,26.49
2022-08-04T04:06:10.183Z,26.46
2022-08-04T04:09:02.657Z,26.45
2022-08-04T04:11:57.132Z,26.45
2022-08-04T04:14:49.958Z,26.38
2022-08-04T04:17:44.490Z,26.18
2022-08-04T04:20:40.053Z,26.24
2022-08-04T04:23:24.549Z,26.14
2022-08-04T04:26:12.865Z,26.08
2022-08-04T04:29:17.763Z,26.02
2022-08-04T04:31:57.441Z,26.14
2022-08-04T04:34:45.861Z,26.15
2022-08-04T04:37:15.941Z,26.13
2022-08-04T04:40:18.238Z,26.06
2022-08-04T04:43:03.531Z,26.20
2022-08-04T04:46:11.144Z,26.23
2022-08-04T04:48:44.951Z,26.16
2022-08-04T04:51:25.986Z,26.11
2022-08-04T04:54:08.066Z,26.16
2022-08-04T04:56:43.810Z,26.17
2022-08-04T04:59:15.490Z,26.30
2022-08-04T05:02:19.720Z,26.31
2022-08-04T05:05:06.117Z,26.29
2022-08-04T05:08:42.990Z,26.25
2022-08-04T05:11:18.172Z,26.24
2022-08-04T05:14:37.802Z,26.31
2022-08-04T05:16:40.495Z,26.31
2022-08-04T05:19:07.136Z,26.30
2022-08-04T05:21:46.017Z,26.47
2022-08-04T05:24:17.703Z,26.33
2022-08-04T05:26:47.380Z,26.23
2022-08-04T05:29:25.967Z,26.38
2022-08-04T05:32:02.878Z,26.44
2022-08-04T05:34:35.548Z,26.53
2022-08-04T05:37:09.258Z,26.50
2022-08-04T05:39:53.199Z,26.48
2022-08-04T05:42:21.415Z,26.53
2022-08-04T05:44:51.404Z,26.66
2022-08-04T05:47:21.443Z,26.92
2022-08-04T05:50:01.045Z,27.05
2022-08-04T05:52:32.338Z,27.03
2022-08-04T05:55:01.696Z,27.10
2022-08-04T05:57:31.658Z,27.11
2022-08-04T06:00:14.855Z,27.29
2022-08-04T06:02:52.254Z,27.39
2022-08-04T06:05:19.535Z,27.58
2022-08-04T06:08:12.692Z,27.66
2022-08-04T06:10:37.604Z,27.72
2022-08-04T06:13:08.637Z,27.74
2022-08-04T06:15:39.173Z,27.95
2022-08-04T06:18:32.880Z,27.98
2022-08-04T06:21:03.745Z,28.17
2022-08-04T06:23:52.985Z,28.23
2022-08-04T06:26:27.668Z,28.27
2022-08-04T06:28:55.302Z,28.42
2022-08-04T06:32:27.056Z,28.35
2022-08-04T06:34:35.539Z,28.52
2022-08-04T06:37:03.906Z,28.51
2022-08-04T06:39:32.946Z,28.71
2022-08-04T06:42:21.944Z,28.74
2022-08-04T06:44:51.270Z,28.89
2022-08-04T06:47:21.340Z,29.09
2022-08-04T06:51:27.574Z,29.07
2022-08-04T06:52:44.751Z,29.14
2022-08-04T06:55:11.944Z,29.26
2022-08-04T06:57:40.990Z,29.29
2022-08-04T07:00:12.264Z,29.42
2022-08-04T07:02:44.072Z,29.38
2022-08-04T07:05:12.165Z,29.43
2022-08-04T07:07:56.917Z,29.35
2022-08-04T07:10:25.215Z,29.49
2022-08-04T07:12:53.950Z,29.42
2022-08-04T07:15:21.665Z,29.52
2022-08-04T07:17:52.354Z,29.57
2022-08-04T07:20:35.354Z,29.65
2022-08-04T07:23:07.326Z,29.76
2022-08-04T07:26:00.388Z,30.03
2022-08-04T07:28:25.702Z,29.57
2022-08-04T07:30:53.974Z,29.65
2022-08-04T07:33:21.817Z,30.09
2022-08-04T07:36:04.928Z,30.23
2022-08-04T07:38:50.834Z,30.32
2022-08-04T07:41:40.296Z,30.24
2022-08-04T07:44:08.194Z,30.29
2022-08-04T07:46:36.365Z,30.36
2022-08-04T07:49:03.912Z,30.42
2022-08-04T07:51:31.592Z,30.61
2022-08-04T07:54:00.194Z,30.32
2022-08-04T07:56:27.811Z,30.09
2022-08-04T07:58:55.318Z,30.30
2022-08-04T08:01:25.716Z,30.50
2022-08-04T08:03:54.292Z,30.57
2022-08-04T08:06:33.290Z,30.49
2022-08-04T08:09:12.409Z,30.73
2022-08-04T08:12:38.105Z,30.75
2022-08-04T08:14:30.688Z,30.84
2022-08-04T08:17:00.196Z,30.98
2022-08-04T08:19:26.993Z,31.04
2022-08-04T08:21:59.092Z,31.17
2022-08-04T08:24:31.779Z,30.84
2022-08-04T08:27:00.016Z,31.03
2022-08-04T08:29:29.324Z,30.98
2022-08-04T08:32:01.431Z,30.93
2022-08-04T08:34:31.923Z,30.86
2022-08-04T08:37:07.636Z,30.98
2022-08-04T08:40:04.856Z,31.11
2022-08-04T08:42:47.493Z,31.26
2022-08-04T08:45:46.513Z,31.44
2022-08-04T08:49:04.472Z,31.49
2022-08-04T08:52:03.565Z,31.61
2022-08-04T08:54:42.609Z,31.46
2022-08-04T08:57:24.524Z,31.60
2022-08-04T08:59:54.081Z,31.73
2022-08-04T09:03:04.790Z,31.56
2022-08-04T09:05:59.442Z,31.64
2022-08-04T09:09:00.681Z,31.66
2022-08-04T09:11:41.901Z,31.73
2022-08-04T09:14:23.922Z,31.83
2022-08-04T09:17:03.500Z,31.89
2022-08-04T09:19:42.278Z,31.83
2022-08-04T09:22:20.443Z,31.78
2022-08-04T09:25:10.979Z,31.27
2022-08-04T09:28:52.482Z,31.46
2022-08-04T09:31:17.203Z,31.65
2022-08-04T09:34:09.718Z,31.90
2022-08-04T09:36:48.336Z,31.93
2022-08-04T09:39:53.942Z,32.12
2022-08-04T09:43:05.168Z,32.07
2022-08-04T09:45:44.101Z,32.21
2022-08-04T09:48:22.704Z,32.06
2022-08-04T09:50:58.123Z,32.06
2022-08-04T09:53:36.768Z,32.26
2022-08-04T09:56:10.092Z,32.04
2022-08-04T09:58:58.203Z,32.15
2022-08-04T10:01:28.699Z,32.01
2022-08-04T10:04:02.666Z,32.09
2022-08-04T10:06:57.472Z,31.99
2022-08-04T10:09:47.919Z,32.20
2022-08-04T10:12:23.614Z,32.15
2022-08-04T10:15:10.869Z,32.28
2022-08-04T10:18:09.202Z,32.37
2022-08-04T10:20:59.023Z,32.30
2022-08-04T10:23:28.142Z,32.47
2022-08-04T10:26:15.258Z,32.54
2022-08-04T10:28:46.519Z,32.57
2022-08-04T10:31:20.751Z,32.64
2022-08-04T10:33:58.447Z,32.56
2022-08-04T10:36:31.887Z,32.53
2022-08-04T10:39:06.567Z,32.91
2022-08-04T10:42:11.254Z,32.92
2022-08-04T10:44:57.317Z,32.97
2022-08-04T10:47:31.968Z,33.06
2022-08-04T10:50:01.350Z,33.17
2022-08-04T10:52:55.088Z,33.21
2022-08-04T10:56:06.297Z,33.16
2022-08-04T10:58:48.027Z,32.86
2022-08-04T11:01:59.634Z,33.17
2022-08-04T11:04:27.179Z,33.23
2022-08-04T11:06:55.423Z,33.28
2022-08-04T11:09:23.095Z,33.45
2022-08-04T11:12:00.429Z,33.33
2022-08-04T11:14:39.531Z,33.27
2022-08-04T11:17:40.707Z,33.27
2022-08-04T11:20:35.954Z,33.39
2022-08-04T11:23:08.844Z,33.36
2022-08-04T11:25:41.517Z,33.35
2022-08-04T11:28:23.505Z,33.33
2022-08-04T11:30:59.374Z,33.43
2022-08-04T11:33:43.979Z,33.64
2022-08-04T11:36:36.455Z,33.61
2022-08-04T11:39:15.694Z,33.77
2022-08-04T11:41:51.328Z,33.62
2022-08-04T11:44:43.195Z,33.49
2022-08-04T11:47:30.387Z,33.54
2022-08-04T11:50:05.330Z,33.37
2022-08-04T11:52:34.222Z,33.38
2022-08-04T11:55:05.635Z,33.20
2022-08-04T11:57:36.364Z,33.25
2022-08-04T12:00:10.817Z,33.57
2022-08-04T12:03:26.070Z,33.76
2022-08-04T12:06:09.355Z,33.80
2022-08-04T12:09:02.761Z,33.54
2022-08-04T12:11:35.654Z,34.07
2022-08-04T12:14:40.027Z,34.21
2022-08-04T12:17:15.284Z,33.98
2022-08-04T12:20:04.580Z,33.62
2022-08-04T12:22:41.727Z,33.76
2022-08-04T12:25:21.486Z,34.02
2022-08-04T12:27:55.100Z,34.61
2022-08-04T12:30:57.761Z,34.58
2022-08-04T12:33:20.630Z,34.58
2022-08-04T12:36:10.830Z,34.36
2022-08-04T12:38:48.624Z,34.37
2022-08-04T12:41:21.642Z,33.79
2022-08-04T12:43:50.235Z,33.61
2022-08-04T12:46:27.081Z,33.86
2022-08-04T12:49:01.548Z,33.89
2022-08-04T12:51:31.124Z,33.91
2022-08-04T12:54:28.868Z,34.03
2022-08-04T12:57:01.402Z,33.83
2022-08-04T12:59:28.569Z,33.75
2022-08-04T13:02:09.076Z,33.76
2022-08-04T13:04:42.644Z,33.72
2022-08-04T13:07:18.817Z,33.04
2022-08-04T13:09:47.122Z,33.42
2022-08-04T13:12:16.530Z,33.38
2022-08-04T13:14:47.323Z,33.09
2022-08-04T13:17:14.455Z,33.16
2022-08-04T13:19:47.281Z,33.51
2022-08-04T13:22:30.123Z,33.44
2022-08-04T13:26:40.516Z,33.84
2022-08-04T13:27:48.659Z,33.43
2022-08-04T13:30:23.122Z,33.11
2022-08-04T13:32:57.754Z,33.31
2022-08-04T13:35:55.970Z,33.50
2022-08-04T13:38:16.850Z,33.66
2022-08-04T13:40:44.555Z,34.47
2022-08-04T13:44:16.999Z,34.68
2022-08-04T13:46:28.753Z,34.38
2022-08-04T13:49:25.922Z,34.07
2022-08-04T13:51:57.349Z,34.67
2022-08-04T13:54:46.978Z,34.78
2022-08-04T13:57:31.750Z,34.00
2022-08-04T14:00:09.819Z,34.64
2022-08-04T14:02:44.111Z,34.75
2022-08-04T14:05:27.395Z,34.61
2022-08-04T14:08:05.468Z,34.48
2022-08-04T14:10:33.241Z,34.86
2022-08-04T14:13:04.340Z,34.85
2022-08-04T14:16:01.306Z,34.32
2022-08-04T14:18:27.534Z,34.89
2022-08-04T14:21:11.250Z,35.51
2022-08-04T14:23:53.750Z,34.96
2022-08-04T14:26:32.354Z,34.29
2022-08-04T14:29:26.657Z,35.26
2022-08-04T14:32:01.903Z,35.37
2022-08-04T14:34:30.622Z,35.66
2022-08-04T14:37:16.446Z,35.31
2022-08-04T14:40:17.752Z,35.49
2022-08-04T14:42:54.496Z,36.20
2022-08-04T14:45:54.853Z,36.20
2022-08-04T14:48:22.530Z,36.57
2022-08-04T14:50:50.907Z,36.64
2022-08-04T14:53:20.140Z,37.53
2022-08-04T14:55:52.242Z,39.49
2022-08-04T14:58:37.259Z,41.16
2022-08-04T15:01:12.144Z,42.52
2022-08-04T15:03:52.253Z,43.21
2022-08-04T15:06:26.086Z,44.20
2022-08-04T15:08:55.348Z,43.71
2022-08-04T15:11:24.230Z,42.93
2022-08-04T15:13:56.171Z,43.05
2022-08-04T15:16:24.755Z,43.36
2022-08-04T15:18:54.497Z,42.93
2022-08-04T15:21:22.456Z,42.58
2022-08-04T15:23:51.073Z,41.35
2022-08-04T15:26:51.947Z,42.00
2022-08-04T15:30:00.416Z,43.79
2022-08-04T15:32:34.273Z,44.04
2022-08-04T15:35:08.573Z,44.92
2022-08-04T15:37:54.037Z,45.48
2022-08-04T15:40:46.884Z,46.02
2022-08-04T15:43:22.806Z,44.37
2022-08-04T15:46:41.999Z,42.35
2022-08-04T15:48:41.837Z,40.75
2022-08-04T15:51:14.465Z,39.82
2022-08-04T15:54:01.365Z,38.63
2022-08-04T15:56:28.854Z,37.28
2022-08-04T15:58:57.012Z,36.73
2022-08-04T16:01:24.372Z,36.33
2022-08-04T16:03:54.534Z,36.19
2022-08-04T16:06:42.179Z,35.91
2022-08-04T16:09:08.872Z,35.63
2022-08-04T16:11:40.141Z,35.80
2022-08-04T16:14:11.069Z,36.23
2022-08-04T16:16:45.291Z,36.03
2022-08-04T16:19:51.593Z,35.84
2022-08-04T16:22:39.753Z,35.37
2022-08-04T16:25:08.610Z,35.11
2022-08-04T16:27:44.867Z,35.76
2022-08-04T16:30:14.907Z,36.06
2022-08-04T16:32:51.904Z,35.85
2022-08-04T16:35:26.103Z,35.88
2022-08-04T16:37:55.791Z,35.40
2022-08-04T16:40:39.511Z,35.05
2022-08-04T16:43:09.575Z,35.32
2022-08-04T16:46:01.637Z,35.41
2022-08-04T16:48:30.745Z,35.42
2022-08-04T16:51:13.011Z,35.81
2022-08-04T16:53:53.137Z,35.48
2022-08-04T16:56:28.617Z,35.00
2022-08-04T16:58:55.765Z,34.28
2022-08-04T17:01:33.750Z,34.14
2022-08-04T17:04:05.881Z,33.74
2022-08-04T17:06:38.460Z,34.34
2022-08-04T17:09:10.129Z,34.91
2022-08-04T17:11:37.149Z,35.22
2022-08-04T17:14:06.079Z,34.72
2022-08-04T17:16:38.087Z,35.06
2022-08-04T17:19:24.422Z,34.68
2022-08-04T17:22:04.221Z,34.28
2022-08-04T17:24:38.075Z,34.87
2022-08-04T17:28:08.843Z,34.72
2022-08-04T17:29:52.472Z,34.42
2022-08-04T17:32:21.556Z,34.69
2022-08-04T17:35:00.226Z,34.72
2022-08-04T17:37:41.218Z,34.68
2022-08-04T17:40:22.669Z,34.16
2022-08-04T17:43:03.025Z,34.12
2022-08-04T17:46:28.568Z,34.37
2022-08-04T17:49:16.594Z,34.36
2022-08-04T17:52:06.832Z,34.14
2022-08-04T17:54:40.352Z,34.38
2022-08-04T17:57:19.653Z,34.65
2022-08-04T17:59:59.982Z,34.70
2022-08-04T18:02:31.879Z,34.53
2022-08-04T18:05:06.933Z,34.39
2022-08-04T18:08:38.069Z,34.52
2022-08-04T18:13:26.332Z,34.24
2022-08-04T18:16:14.491Z,34.42
2022-08-04T18:19:08.960Z,34.39
2022-08-04T18:21:46.580Z,34.35
2022-08-04T18:24:34.596Z,34.23
2022-08-04T18:27:06.545Z,34.52
2022-08-04T18:29:38.972Z,34.56
2022-08-04T18:32:09.142Z,34.33
2022-08-04T18:34:40.663Z,34.33
2022-08-04T18:38:06.716Z,34.22
2022-08-04T18:40:30.307Z,34.28
2022-08-04T18:42:56.222Z,34.28
2022-08-04T18:45:24.109Z,34.27
2022-08-04T18:48:01.242Z,34.37
2022-08-04T18:50:58.524Z,34.47
2022-08-04T18:53:16.374Z,34.50
2022-08-04T18:55:57.988Z,34.50
2022-08-04T18:58:27.421Z,34.20
2022-08-04T19:00:56.142Z,34.11
2022-08-04T19:03:30.765Z,34.14
2022-08-04T19:06:01.914Z,34.29
2022-08-04T19:08:33.345Z,34.39
2022-08-04T19:11:37.493Z,34.37
2022-08-04T19:13:57.871Z,34.23
2022-08-04T19:16:26.483Z,34.25
2022-08-04T19:18:53.120Z,34.31
2022-08-04T19:22:00.107Z,34.26
2022-08-04T19:24:26.897Z,34.33
2022-08-04T19:26:56.075Z,34.33
2022-08-04T19:29:23.019Z,34.23
2022-08-04T19:31:49.713Z,34.16
2022-08-04T19:34:34.937Z,34.11
2022-08-04T19:37:01.781Z,33.99
2022-08-04T19:39:31.354Z,34.16
2022-08-04T19:44:49.799Z,33.93
2022-08-04T19:48:12.169Z,33.81
2022-08-04T19:50:10.395Z,33.76
2022-08-04T19:52:37.781Z,33.75
2022-08-04T19:55:09.932Z,33.76
2022-08-04T19:57:46.000Z,33.76
2022-08-04T20:00:14.200Z,33.73
2022-08-04T20:02:41.934Z,33.74
2022-08-04T20:05:09.488Z,33.76
2022-08-04T20:07:44.018Z,33.78
2022-08-04T20:10:14.081Z,33.72
2022-08-04T20:12:42.206Z,33.69
2022-08-04T20:15:11.085Z,33.70
2022-08-04T20:17:55.826Z,33.67
2022-08-04T20:20:29.809Z,33.76
2022-08-04T20:22:57.760Z,33.79
2022-08-04T20:25:37.264Z,33.70
2022-08-04T20:28:05.580Z,33.64
2022-08-04T20:30:35.149Z,33.63
2022-08-04T20:33:04.404Z,33.63
2022-08-04T20:36:00.845Z,33.65
2022-08-04T20:38:33.620Z,33.63
2022-08-04T20:41:01.819Z,33.59
2022-08-04T20:43:31.276Z,33.59
2022-08-04T20:45:59.422Z,33.57
2022-08-04T20:48:33.566Z,33.59
2022-08-04T20:51:00.678Z,33.62
2022-08-04T20:53:46.655Z,33.55
2022-08-04T20:56:19.373Z,33.52
2022-08-04T20:58:59.903Z,33.50
2022-08-04T21:01:30.232Z,33.61
2022-08-04T21:04:20.314Z,33.54
2022-08-04T21:06:57.283Z,33.48
2022-08-04T21:09:37.546Z,33.47
2022-08-04T21:12:10.612Z,33.44
2022-08-04T21:14:53.829Z,33.27
2022-08-04T21:17:21.112Z,33.25
2022-08-04T21:20:08.252Z,33.22
2022-08-04T21:22:40.290Z,33.23
2022-08-04T21:25:15.798Z,33.19
2022-08-04T21:27:44.237Z,33.16
2022-08-04T21:30:24.140Z,33.09
2022-08-04T21:32:58.756Z,32.96
2022-08-04T21:35:36.738Z,32.85
2022-08-04T21:38:16.409Z,32.72
2022-08-04T21:41:01.853Z,32.67
2022-08-04T21:46:16.806Z,32.72
2022-08-04T21:48:45.297Z,32.66
2022-08-04T21:51:56.953Z,32.56
2022-08-04T21:54:16.955Z,32.57
2022-08-04T21:56:51.419Z,32.46
2022-08-04T21:59:23.271Z,32.41
2022-08-04T22:01:54.642Z,32.37
2022-08-04T22:04:21.888Z,32.40
2022-08-04T22:06:51.935Z,32.28
2022-08-04T22:09:21.806Z,32.35
2022-08-04T22:11:50.660Z,32.27
2022-08-04T22:14:28.867Z,32.13
2022-08-04T22:16:57.705Z,32.18
2022-08-04T22:19:50.161Z,32.15
2022-08-04T22:22:24.706Z,32.15
2022-08-04T22:24:58.821Z,32.07
2022-08-04T22:27:47.295Z,31.92
2022-08-04T22:30:17.239Z,31.84
2022-08-04T22:32:46.455Z,31.93
2022-08-04T22:35:36.368Z,31.93
2022-08-04T22:38:06.537Z,31.75
2022-08-04T22:40:49.952Z,31.76
2022-08-04T22:43:32.311Z,31.82
2022-08-04T22:46:03.559Z,31.68
2022-08-04T22:48:32.569Z,31.61
2022-08-04T22:51:00.660Z,31.47
2022-08-04T22:53:27.973Z,31.38
2022-08-04T22:56:06.348Z,31.40
2022-08-04T22:58:36.307Z,31.22
2022-08-04T23:01:08.391Z,31.32
2022-08-04T23:03:40.308Z,31.20
2022-08-04T23:06:10.565Z,31.22
2022-08-04T23:08:43.320Z,31.11
2022-08-04T23:11:14.731Z,31.05
2022-08-04T23:13:41.854Z,31.10
2022-08-04T23:16:10.000Z,31.06
2022-08-04T23:18:41.858Z,31.05
2022-08-04T23:21:10.231Z,31.06
2022-08-04T23:23:38.225Z,30.89
2022-08-04T23:26:22.450Z,30.91
2022-08-04T23:28:55.660Z,30.80
2022-08-04T23:31:22.466Z,30.87
2022-08-04T23:33:51.746Z,30.93
2022-08-04T23:36:29.757Z,31.07
2022-08-04T23:39:03.979Z,30.98
2022-08-04T23:41:54.419Z,30.85
2022-08-04T23:44:25.089Z,30.69
2022-08-04T23:47:03.692Z,30.57
2022-08-04T23:49:43.887Z,30.62
2022-08-04T23:52:28.065Z,30.45
2022-08-04T23:54:58.845Z,30.41
2022-08-04T23:58:02.058Z,30.33
